createdAt,value
2018-08-07T00:02:01.544Z,23.47
2018-08-07T00:04:28.956Z,23.64
2018-08-07T00:06:56.384Z,23.69
2018-08-07T00:09:23.827Z,23.58
2018-08-07T00:11:51.226Z,23.48
2018-08-07T00:14:18.645Z,23.46
2018-08-07T00:16:46.104Z,23.46
2018-08-07T00:19:13.531Z,23.41
2018-08-07T00:21:40.926Z,23.33
2018-08-07T00:24:08.372Z,23.26
2018-08-07T00:26:35.802Z,23.27
2018-08-07T00:29:03.194Z,23.30
2018-08-07T00:31:30.629Z,23.32
2018-08-07T00:33:58.028Z,23.25
2018-08-07T00:36:25.773Z,23.13
2018-08-07T00:38:53.215Z,23.02
2018-08-07T00:41:20.660Z,23.00
2018-08-07T00:43:48.050Z,22.94
2018-08-07T00:46:15.502Z,22.75
2018-08-07T00:48:43.037Z,22.65
2018-08-07T00:51:10.486Z,22.63
2018-08-07T00:53:38.031Z,22.63
2018-08-07T00:56:05.491Z,22.64
2018-08-07T00:58:32.949Z,22.62
2018-08-07T01:01:00.400Z,22.61
2018-08-07T01:03:27.817Z,22.58
2018-08-07T01:05:55.217Z,22.53
2018-08-07T01:08:22.721Z,22.47
2018-08-07T01:10:50.116Z,22.47
2018-08-07T01:13:17.684Z,22.47
2018-08-07T01:15:45.104Z,22.54
2018-08-07T01:18:12.639Z,22.55
2018-08-07T01:20:40.468Z,22.53
2018-08-07T01:23:07.963Z,22.58
2018-08-07T01:25:35.407Z,22.56
2018-08-07T01:28:02.801Z,22.62
2018-08-07T01:30:30.237Z,22.56
2018-08-07T01:32:57.681Z,22.56
2018-08-07T01:35:25.224Z,22.58
2018-08-07T01:37:52.688Z,22.62
2018-08-07T01:40:20.087Z,22.66
2018-08-07T01:42:47.507Z,22.64
2018-08-07T01:45:15.100Z,22.72
2018-08-07T01:47:42.578Z,22.69
2018-08-07T01:50:10.067Z,22.54
2018-08-07T01:52:37.504Z,22.44
2018-08-07T01:55:04.942Z,22.50
2018-08-07T01:57:32.375Z,22.29
2018-08-07T01:59:59.848Z,22.14
2018-08-07T02:02:27.256Z,22.12
2018-08-07T02:04:54.747Z,22.06
2018-08-07T02:07:22.391Z,22.03
2018-08-07T02:09:49.836Z,21.98
2018-08-07T02:12:17.412Z,22.02
2018-08-07T02:14:44.805Z,21.98
2018-08-07T02:17:12.310Z,22.06
2018-08-07T02:19:39.734Z,21.92
2018-08-07T02:22:07.237Z,21.99
2018-08-07T02:24:34.677Z,22.02
2018-08-07T02:27:02.091Z,22.18
2018-08-07T02:29:29.541Z,22.25
2018-08-07T02:31:56.959Z,22.20
2018-08-07T02:34:24.413Z,22.25
2018-08-07T02:36:51.833Z,22.27
2018-08-07T02:39:19.311Z,22.28
2018-08-07T02:41:46.718Z,22.32
2018-08-07T02:44:14.175Z,22.29
2018-08-07T02:49:08.364Z,22.28
2018-08-07T02:51:36.174Z,22.31
2018-08-07T02:54:03.651Z,22.33
2018-08-07T02:56:31.070Z,22.32
2018-08-07T02:58:58.503Z,22.29
2018-08-07T03:01:25.982Z,22.33
2018-08-07T03:03:53.475Z,22.31
2018-08-07T03:06:20.945Z,22.28
2018-08-07T03:08:48.391Z,22.29
2018-08-07T03:11:15.827Z,22.23
2018-08-07T03:13:43.362Z,22.22
2018-08-07T03:16:10.805Z,22.25
2018-08-07T03:18:38.231Z,22.23
2018-08-07T03:21:05.682Z,22.19
2018-08-07T03:23:33.148Z,22.21
2018-08-07T03:26:00.593Z,22.17
2018-08-07T03:28:28.056Z,22.16
2018-08-07T03:30:55.511Z,22.15
2018-08-07T03:33:23.032Z,22.04
2018-08-07T03:35:50.433Z,21.71
2018-08-07T03:38:17.888Z,21.48
2018-08-07T03:40:45.310Z,21.36
2018-08-07T03:43:12.805Z,21.50
2018-08-07T03:45:40.291Z,21.62
2018-08-07T03:48:07.770Z,21.65
2018-08-07T03:50:35.348Z,21.69
2018-08-07T03:53:02.784Z,21.75
2018-08-07T03:55:30.199Z,21.70
2018-08-07T03:57:57.777Z,21.74
2018-08-07T04:00:25.208Z,21.79
2018-08-07T04:02:52.634Z,21.84
2018-08-07T04:05:20.145Z,21.99
2018-08-07T04:07:47.738Z,22.02
2018-08-07T04:10:15.226Z,22.02
2018-08-07T04:12:42.700Z,22.00
2018-08-07T04:15:10.189Z,21.89
2018-08-07T04:17:37.621Z,21.97
2018-08-07T04:20:05.079Z,21.98
2018-08-07T04:22:32.565Z,21.91
2018-08-07T04:25:00.050Z,21.88
2018-08-07T04:27:27.454Z,21.90
2018-08-07T04:29:54.854Z,21.83
2018-08-07T04:32:22.358Z,21.83
2018-08-07T04:34:49.773Z,21.88
2018-08-07T04:37:17.278Z,21.93
2018-08-07T04:39:44.760Z,21.97
2018-08-07T04:42:12.212Z,21.99
2018-08-07T04:44:39.677Z,21.86
2018-08-07T04:47:07.137Z,21.87
2018-08-07T04:49:34.568Z,21.90
2018-08-07T04:52:01.975Z,21.89
2018-08-07T04:54:29.440Z,21.93
2018-08-07T04:56:56.893Z,21.94
2018-08-07T04:59:24.383Z,22.02
2018-08-07T05:01:51.828Z,22.10
2018-08-07T05:04:19.303Z,22.21
2018-08-07T05:06:46.775Z,22.28
2018-08-07T05:09:14.181Z,22.34
2018-08-07T05:11:41.600Z,22.45
2018-08-07T05:14:09.127Z,22.50
2018-08-07T05:16:36.578Z,22.55
2018-08-07T05:19:04.019Z,22.59
2018-08-07T05:21:31.449Z,22.55
2018-08-07T05:23:58.910Z,22.57
2018-08-07T05:26:26.448Z,22.69
2018-08-07T05:28:53.900Z,22.79
2018-08-07T05:31:21.376Z,22.87
2018-08-07T05:33:48.828Z,22.84
2018-08-07T05:36:16.344Z,22.88
2018-08-07T05:38:43.827Z,22.98
2018-08-07T05:41:11.349Z,23.16
2018-08-07T05:43:38.780Z,23.24
2018-08-07T05:46:06.251Z,23.19
2018-08-07T05:48:33.719Z,23.10
2018-08-07T05:51:01.528Z,23.09
2018-08-07T05:53:28.655Z,23.08
2018-08-07T05:55:56.103Z,23.11
2018-08-07T05:58:23.559Z,23.22
2018-08-07T06:00:51.021Z,23.27
2018-08-07T06:03:18.517Z,23.25
2018-08-07T06:05:45.955Z,23.16
2018-08-07T06:08:13.462Z,23.15
2018-08-07T06:10:40.982Z,23.05
2018-08-07T06:13:08.402Z,23.05
2018-08-07T06:15:35.865Z,23.14
2018-08-07T06:18:03.389Z,23.33
2018-08-07T06:20:30.824Z,23.39
2018-08-07T06:22:58.253Z,23.36
2018-08-07T06:25:25.727Z,23.41
2018-08-07T06:27:53.136Z,23.66
2018-08-07T06:30:20.581Z,24.02
2018-08-07T06:32:47.987Z,24.43
2018-08-07T06:35:16.204Z,24.44
2018-08-07T06:37:43.660Z,24.35
2018-08-07T06:40:11.119Z,24.26
2018-08-07T06:42:38.545Z,24.57
2018-08-07T06:45:06.079Z,24.85
2018-08-07T06:47:33.513Z,25.01
2018-08-07T06:50:01.114Z,25.21
2018-08-07T06:52:28.596Z,25.28
2018-08-07T06:54:56.097Z,25.29
2018-08-07T06:57:23.654Z,25.65
2018-08-07T06:59:51.099Z,25.51
2018-08-07T07:02:18.504Z,25.54
2018-08-07T07:04:45.944Z,25.74
2018-08-07T07:07:13.401Z,25.62
2018-08-07T07:09:40.951Z,25.82
2018-08-07T07:12:08.354Z,25.97
2018-08-07T07:14:35.843Z,26.31
2018-08-07T07:17:03.274Z,26.85
2018-08-07T07:19:30.751Z,27.27
2018-08-07T07:21:58.254Z,27.13
2018-08-07T07:24:25.688Z,26.86
2018-08-07T07:26:53.155Z,26.66
2018-08-07T07:29:20.682Z,26.53
2018-08-07T07:31:48.164Z,26.43
2018-08-07T07:34:15.753Z,26.14
2018-08-07T07:36:43.143Z,25.65
2018-08-07T07:39:10.566Z,25.60
2018-08-07T07:41:38.833Z,25.72
2018-08-07T07:44:06.311Z,25.86
2018-08-07T07:46:33.785Z,25.94
2018-08-07T07:49:01.340Z,26.10
2018-08-07T07:51:28.844Z,26.17
2018-08-07T07:53:56.344Z,26.25
2018-08-07T07:56:23.776Z,26.36
2018-08-07T07:58:51.260Z,26.45
2018-08-07T08:01:18.800Z,26.50
2018-08-07T08:03:46.347Z,26.62
2018-08-07T08:06:13.791Z,26.84
2018-08-07T08:08:41.233Z,27.26
2018-08-07T08:11:08.776Z,27.95
2018-08-07T08:13:36.170Z,28.44
2018-08-07T08:16:03.718Z,28.75
2018-08-07T08:18:31.214Z,28.45
2018-08-07T08:20:58.643Z,28.39
2018-08-07T08:23:26.163Z,28.58
2018-08-07T08:25:53.632Z,29.08
2018-08-07T08:28:21.091Z,29.63
2018-08-07T08:30:48.556Z,30.16
2018-08-07T08:33:15.983Z,30.83
2018-08-07T08:35:43.475Z,31.38
2018-08-07T08:38:10.931Z,31.03
2018-08-07T08:40:38.459Z,30.49
2018-08-07T08:43:05.968Z,30.36
2018-08-07T08:45:33.556Z,30.13
2018-08-07T08:48:01.106Z,30.69
2018-08-07T08:50:28.544Z,30.49
2018-08-07T08:52:55.998Z,30.78
2018-08-07T08:55:23.572Z,30.91
2018-08-07T08:57:51.027Z,30.88
2018-08-07T09:00:18.551Z,30.90
2018-08-07T09:02:46.249Z,31.15
2018-08-07T09:05:13.861Z,31.06
2018-08-07T09:07:41.413Z,30.91
2018-08-07T09:10:08.822Z,30.51
2018-08-07T09:12:36.283Z,30.25
2018-08-07T09:15:03.699Z,30.49
2018-08-07T09:17:31.106Z,30.59
2018-08-07T09:19:58.549Z,30.61
2018-08-07T09:22:26.067Z,30.98
2018-08-07T09:24:53.527Z,31.25
2018-08-07T09:27:21.027Z,31.27
2018-08-07T09:29:48.514Z,31.43
2018-08-07T09:32:15.939Z,31.52
2018-08-07T09:34:42.942Z,31.32
2018-08-07T09:37:10.763Z,31.34
2018-08-07T09:39:38.335Z,31.67
2018-08-07T09:42:05.691Z,31.55
2018-08-07T09:44:33.180Z,31.56
2018-08-07T09:47:00.787Z,31.78
2018-08-07T09:49:28.279Z,31.85
2018-08-07T09:51:55.229Z,31.97
2018-08-07T09:54:22.206Z,31.96
2018-08-07T09:56:49.265Z,31.75
2018-08-07T09:59:16.277Z,31.88
2018-08-07T10:01:43.743Z,31.73
2018-08-07T10:04:10.793Z,31.75
2018-08-07T10:06:37.826Z,31.58
2018-08-07T10:09:04.825Z,31.51
2018-08-07T10:11:32.073Z,31.59
2018-08-07T10:13:59.130Z,32.13
2018-08-07T10:16:26.066Z,32.43
2018-08-07T10:18:53.079Z,32.13
2018-08-07T10:21:20.052Z,31.72
2018-08-07T10:23:47.100Z,31.79
2018-08-07T10:26:14.109Z,32.22
2018-08-07T10:28:41.527Z,32.43
2018-08-07T10:31:08.940Z,32.40
2018-08-07T10:33:36.349Z,32.28
2018-08-07T10:36:03.778Z,32.38
2018-08-07T10:38:31.223Z,32.60
2018-08-07T10:40:58.997Z,32.60
2018-08-07T10:43:26.507Z,32.27
2018-08-07T10:45:53.920Z,32.58
2018-08-07T10:48:20.941Z,33.20
2018-08-07T10:50:48.376Z,33.47
2018-08-07T10:53:15.315Z,33.68
2018-08-07T10:55:42.972Z,33.23
2018-08-07T10:58:10.038Z,32.83
2018-08-07T11:00:37.004Z,32.59
2018-08-07T11:03:04.036Z,32.70
2018-08-07T11:05:31.015Z,32.74
2018-08-07T11:07:57.995Z,32.83
2018-08-07T11:10:26.193Z,32.70
2018-08-07T11:12:53.219Z,32.73
2018-08-07T11:15:20.486Z,33.23
2018-08-07T11:17:47.480Z,33.40
2018-08-07T11:20:14.479Z,33.18
2018-08-07T11:22:41.582Z,33.24
2018-08-07T11:25:08.537Z,33.31
2018-08-07T11:27:35.559Z,33.47
2018-08-07T11:30:02.724Z,33.61
2018-08-07T11:32:29.819Z,33.60
2018-08-07T11:34:57.287Z,34.35
2018-08-07T11:37:24.721Z,34.16
2018-08-07T11:39:52.228Z,34.13
2018-08-07T11:42:19.717Z,34.33
2018-08-07T11:44:47.245Z,34.43
2018-08-07T11:47:14.775Z,34.53
2018-08-07T11:49:42.766Z,34.67
2018-08-07T11:52:10.373Z,34.94
2018-08-07T11:54:37.829Z,34.88
2018-08-07T11:57:05.447Z,35.13
2018-08-07T11:59:32.905Z,35.19
2018-08-07T12:02:00.474Z,34.91
2018-08-07T12:04:28.859Z,35.07
2018-08-07T12:06:56.356Z,35.33
2018-08-07T12:09:23.883Z,35.33
2018-08-07T12:11:51.379Z,35.58
2018-08-07T12:14:19.010Z,35.64
2018-08-07T12:16:46.622Z,35.72
2018-08-07T12:19:14.060Z,35.73
2018-08-07T12:21:41.603Z,35.53
2018-08-07T12:24:09.044Z,35.65
2018-08-07T12:26:36.475Z,35.42
2018-08-07T12:29:04.004Z,35.73
2018-08-07T12:31:31.447Z,36.05
2018-08-07T12:33:58.968Z,36.10
2018-08-07T12:36:26.495Z,35.83
2018-08-07T12:38:53.983Z,36.15
2018-08-07T12:41:21.568Z,36.02
2018-08-07T12:43:49.046Z,35.58
2018-08-07T12:46:16.560Z,34.70
2018-08-07T12:48:44.043Z,34.22
2018-08-07T12:51:11.530Z,34.35
2018-08-07T12:53:39.054Z,34.41
2018-08-07T12:56:06.597Z,34.55
2018-08-07T12:58:34.048Z,34.46
2018-08-07T13:01:01.512Z,34.39
2018-08-07T13:03:29.109Z,34.63
2018-08-07T13:05:56.556Z,34.99
2018-08-07T13:08:23.995Z,34.71
2018-08-07T13:10:51.617Z,34.93
2018-08-07T13:13:19.199Z,34.85
2018-08-07T13:15:46.778Z,34.84
2018-08-07T13:18:14.321Z,34.93
2018-08-07T13:20:41.851Z,35.07
2018-08-07T13:23:09.291Z,34.99
2018-08-07T13:25:36.736Z,34.85
2018-08-07T13:28:04.216Z,34.85
2018-08-07T13:30:31.649Z,34.79
2018-08-07T13:32:59.107Z,35.18
2018-08-07T13:35:26.672Z,35.78
2018-08-07T13:37:54.075Z,35.94
2018-08-07T13:40:21.675Z,35.66
2018-08-07T13:42:49.170Z,35.87
2018-08-07T13:45:16.679Z,36.25
2018-08-07T13:47:44.244Z,36.32
2018-08-07T13:50:12.689Z,36.37
2018-08-07T13:52:40.141Z,36.63
2018-08-07T13:55:07.637Z,36.91
2018-08-07T14:00:28.080Z,36.95
2018-08-07T14:02:55.590Z,36.90
2018-08-07T14:05:23.084Z,36.88
2018-08-07T14:07:50.069Z,37.13
2018-08-07T14:10:17.607Z,37.19
2018-08-07T14:12:44.679Z,37.19
2018-08-07T14:15:11.694Z,37.11
2018-08-07T14:17:38.712Z,37.10
2018-08-07T14:20:05.712Z,37.07
2018-08-07T14:22:32.689Z,37.10
2018-08-07T14:24:59.671Z,37.05
2018-08-07T14:27:26.698Z,36.47
2018-08-07T14:29:53.752Z,36.50
2018-08-07T14:32:20.883Z,36.79
2018-08-07T14:34:48.353Z,36.91
2018-08-07T14:37:15.932Z,37.13
2018-08-07T14:39:43.422Z,37.02
2018-08-07T14:42:10.948Z,36.89
2018-08-07T14:44:38.365Z,36.90
2018-08-07T14:47:05.836Z,36.71
2018-08-07T14:49:33.306Z,36.81
2018-08-07T14:52:00.929Z,37.03
2018-08-07T14:54:28.437Z,37.15
2018-08-07T14:56:55.852Z,37.05
2018-08-07T14:59:23.307Z,37.07
2018-08-07T15:01:50.777Z,36.80
2018-08-07T15:04:18.840Z,36.98
2018-08-07T15:06:46.252Z,36.94
2018-08-07T15:09:13.719Z,36.82
2018-08-07T15:11:41.207Z,36.81
2018-08-07T15:14:08.713Z,36.75
2018-08-07T15:16:36.287Z,36.78
2018-08-07T15:19:03.372Z,36.88
2018-08-07T15:21:30.343Z,36.80
2018-08-07T15:23:57.315Z,36.84
2018-08-07T15:26:24.345Z,36.93
2018-08-07T15:28:51.289Z,36.91
2018-08-07T15:31:18.273Z,36.89
2018-08-07T15:33:45.273Z,36.84
2018-08-07T15:36:12.295Z,36.69
2018-08-07T15:38:39.401Z,36.62
2018-08-07T15:41:06.519Z,36.73
2018-08-07T15:43:33.563Z,36.79
2018-08-07T15:46:00.504Z,36.83
2018-08-07T15:48:27.940Z,36.74
2018-08-07T15:50:54.981Z,36.63
2018-08-07T15:53:22.418Z,36.53
2018-08-07T15:55:49.910Z,36.51
2018-08-07T15:58:17.813Z,36.36
2018-08-07T16:00:44.848Z,36.25
2018-08-07T16:03:11.866Z,36.16
2018-08-07T16:05:38.814Z,36.24
2018-08-07T16:08:05.896Z,36.01
2018-08-07T16:10:33.303Z,35.90
2018-08-07T16:13:00.764Z,35.83
2018-08-07T16:15:28.205Z,35.93
2018-08-07T16:17:55.751Z,35.92
2018-08-07T16:20:23.276Z,35.93
2018-08-07T16:22:50.776Z,35.75
2018-08-07T16:25:18.255Z,35.79
2018-08-07T16:27:45.363Z,35.72
2018-08-07T16:30:12.385Z,35.75
2018-08-07T16:32:39.285Z,35.70
2018-08-07T16:35:06.261Z,35.56
2018-08-07T16:40:29.258Z,35.58
2018-08-07T16:42:56.748Z,35.60
2018-08-07T16:45:24.193Z,35.59
2018-08-07T16:47:51.780Z,35.71
2018-08-07T16:50:19.362Z,35.64
2018-08-07T16:52:46.934Z,35.46
2018-08-07T16:55:14.399Z,35.31
2018-08-07T16:57:41.914Z,35.28
2018-08-07T17:00:09.491Z,35.26
2018-08-07T17:02:36.481Z,35.35
2018-08-07T17:05:04.005Z,35.42
2018-08-07T17:07:31.719Z,35.43
2018-08-07T17:09:59.241Z,35.41
2018-08-07T17:12:26.664Z,35.39
2018-08-07T17:14:54.149Z,35.36
2018-08-07T17:17:22.544Z,35.33
2018-08-07T17:19:49.570Z,35.21
2018-08-07T17:22:16.645Z,35.23
2018-08-07T17:24:43.584Z,35.21
2018-08-07T17:27:10.674Z,35.13
2018-08-07T17:29:38.169Z,35.10
2018-08-07T17:32:05.665Z,35.01
2018-08-07T17:34:32.667Z,35.00
2018-08-07T17:36:59.657Z,34.91
2018-08-07T17:39:26.645Z,34.91
2018-08-07T17:41:54.059Z,34.81
2018-08-07T17:44:21.797Z,34.73
2018-08-07T17:46:49.334Z,34.66
2018-08-07T17:49:16.816Z,34.68
2018-08-07T17:51:44.265Z,34.57
2018-08-07T17:54:11.856Z,34.46
2018-08-07T17:56:38.891Z,34.33
2018-08-07T17:59:05.938Z,34.28
2018-08-07T18:01:33.411Z,34.27
2018-08-07T18:04:00.928Z,34.27
2018-08-07T18:06:28.461Z,34.20
2018-08-07T18:08:55.911Z,34.19
2018-08-07T18:11:23.335Z,34.07
2018-08-07T18:13:50.859Z,34.03
2018-08-07T18:16:18.330Z,33.91
2018-08-07T18:18:45.857Z,33.82
2018-08-07T18:21:13.256Z,33.84
2018-08-07T18:23:40.786Z,33.71
2018-08-07T18:26:08.270Z,33.54
2018-08-07T18:28:35.990Z,33.43
2018-08-07T18:31:03.069Z,33.38
2018-08-07T18:33:30.736Z,33.31
2018-08-07T18:35:58.227Z,33.11
2018-08-07T18:38:25.663Z,33.06
2018-08-07T18:40:53.117Z,33.01
2018-08-07T18:43:20.628Z,32.93
2018-08-07T18:45:48.084Z,32.81
2018-08-07T18:48:15.548Z,32.72
2018-08-07T18:50:43.022Z,32.62
2018-08-07T18:53:10.492Z,32.51
2018-08-07T18:55:38.235Z,32.42
2018-08-07T18:58:05.724Z,32.31
2018-08-07T19:00:33.159Z,32.27
2018-08-07T19:03:00.640Z,32.23
2018-08-07T19:05:28.116Z,32.20
2018-08-07T19:07:55.637Z,32.12
2018-08-07T19:10:23.135Z,32.06
2018-08-07T19:12:50.596Z,32.01
2018-08-07T19:15:18.103Z,31.97
2018-08-07T19:17:45.532Z,31.95
2018-08-07T19:20:13.041Z,31.88
2018-08-07T19:22:40.484Z,31.79
2018-08-07T19:25:08.037Z,31.75
2018-08-07T19:27:35.534Z,31.68
2018-08-07T19:30:02.978Z,31.63
2018-08-07T19:32:30.442Z,31.52
2018-08-07T19:34:57.902Z,31.45
2018-08-07T19:37:25.403Z,31.36
2018-08-07T19:39:52.896Z,31.34
2018-08-07T19:42:20.445Z,31.29
2018-08-07T19:44:47.967Z,31.28
2018-08-07T19:47:15.403Z,31.23
2018-08-07T19:49:42.941Z,31.17
2018-08-07T19:52:10.967Z,31.13
2018-08-07T19:54:38.509Z,31.08
2018-08-07T19:57:06.171Z,31.02
2018-08-07T19:59:33.617Z,30.93
2018-08-07T20:02:01.343Z,30.93
2018-08-07T20:04:28.847Z,30.84
2018-08-07T20:06:56.361Z,30.78
2018-08-07T20:09:23.808Z,30.74
2018-08-07T20:11:51.256Z,30.72
2018-08-07T20:14:19.097Z,30.69
2018-08-07T20:16:46.843Z,30.66
2018-08-07T20:19:14.297Z,30.62
2018-08-07T20:21:41.768Z,30.57
2018-08-07T20:24:09.231Z,30.52
2018-08-07T20:26:36.698Z,30.53
2018-08-07T20:29:04.138Z,30.51
2018-08-07T20:31:31.559Z,30.49
2018-08-07T20:33:59.101Z,30.45
2018-08-07T20:36:26.646Z,30.39
2018-08-07T20:38:54.210Z,30.39
2018-08-07T20:41:21.824Z,30.32
2018-08-07T20:43:49.309Z,30.23
2018-08-07T20:46:16.774Z,30.20
2018-08-07T20:48:44.292Z,30.19
2018-08-07T20:51:11.860Z,30.20
2018-08-07T20:53:39.298Z,30.19
2018-08-07T20:56:06.707Z,30.15
2018-08-07T20:58:34.258Z,30.10
2018-08-07T21:01:01.708Z,30.05
2018-08-07T21:03:29.194Z,29.96
2018-08-07T21:05:56.802Z,29.93
2018-08-07T21:08:24.314Z,29.94
2018-08-07T21:10:51.817Z,29.87
2018-08-07T21:13:19.289Z,29.79
2018-08-07T21:15:46.740Z,29.74
2018-08-07T21:18:14.247Z,29.68
2018-08-07T21:20:41.675Z,29.66
2018-08-07T21:23:09.201Z,29.65
2018-08-07T21:25:36.712Z,29.59
2018-08-07T21:28:04.135Z,29.53
2018-08-07T21:30:31.587Z,29.46
2018-08-07T21:32:59.139Z,29.43
2018-08-07T21:35:26.664Z,29.40
2018-08-07T21:37:55.231Z,29.38
2018-08-07T21:40:22.740Z,29.36
2018-08-07T21:42:51.008Z,29.29
2018-08-07T21:45:18.471Z,29.29
2018-08-07T21:47:45.923Z,29.26
2018-08-07T21:50:13.384Z,29.24
2018-08-07T21:52:40.931Z,29.22
2018-08-07T21:55:08.446Z,29.27
2018-08-07T21:57:35.923Z,29.31
2018-08-07T22:00:03.528Z,29.30
2018-08-07T22:02:31.019Z,29.28
2018-08-07T22:04:58.504Z,29.24
2018-08-07T22:07:25.981Z,29.22
2018-08-07T22:09:53.433Z,29.16
2018-08-07T22:12:20.981Z,29.11
2018-08-07T22:17:10.733Z,29.12
2018-08-07T22:19:38.238Z,29.10
2018-08-07T22:22:06.709Z,29.05
2018-08-07T22:24:34.151Z,28.97
2018-08-07T22:27:01.636Z,28.93
2018-08-07T22:29:29.191Z,28.91
2018-08-07T22:31:56.641Z,28.89
2018-08-07T22:34:24.077Z,28.82
2018-08-07T22:36:51.615Z,28.78
2018-08-07T22:39:19.034Z,28.75
2018-08-07T22:41:46.500Z,28.72
2018-08-07T22:44:13.469Z,28.69
2018-08-07T22:46:41.029Z,28.65
2018-08-07T22:49:08.470Z,28.64
2018-08-07T22:51:35.882Z,28.68
2018-08-07T22:54:03.422Z,28.74
2018-08-07T22:56:31.115Z,28.76
2018-08-07T22:58:58.106Z,28.70
2018-08-07T23:01:25.593Z,28.63
2018-08-07T23:03:53.173Z,28.58
2018-08-07T23:06:20.586Z,28.59
2018-08-07T23:08:47.998Z,28.57
2018-08-07T23:11:15.052Z,28.50
2018-08-07T23:13:42.525Z,28.39
2018-08-07T23:16:10.004Z,28.36
2018-08-07T23:18:37.452Z,28.35
2018-08-07T23:21:04.943Z,28.37
2018-08-07T23:23:32.432Z,28.39
2018-08-07T23:25:59.897Z,28.42
2018-08-07T23:28:27.327Z,28.37
2018-08-07T23:30:54.862Z,28.34
2018-08-07T23:33:22.361Z,28.26
2018-08-07T23:35:50.848Z,28.19
2018-08-07T23:38:18.350Z,28.12
2018-08-07T23:40:45.797Z,28.09
2018-08-07T23:43:14.268Z,28.10
2018-08-07T23:45:41.776Z,28.11
2018-08-07T23:48:09.321Z,28.08
2018-08-07T23:50:36.770Z,28.11
2018-08-07T23:53:04.226Z,28.08
2018-08-07T23:55:31.684Z,28.05
2018-08-07T23:57:59.137Z,27.96
